Terminal Aerodrome Forecast
Issued by NWS

Home | Current Version | Previous Version | Graphics & Text | Print | Product List | Glossary On
Versions: 1 2 3 4 5 6 7 8 9 10 11 12 13 14 15 16 17 18 19 20 21 22 23 24 25 26 27 28 29
000
FTUS43 KTOP 251700
TAFFOE
TAF
KFOE 251720Z 2518/2618 02013KT 6SM BR BKN009
     FM252200 01016G25KT 5SM -RA BR BKN010 OVC050
     FM260500 35009KT P6SM SCT050 BKN100=

USA.gov is the U.S. government's official web portal to all federal, state and local government web resources and services.